createdAt,value
2019-03-11T00:00:11.700Z,1.44
2019-03-11T00:02:11.516Z,1.38
2019-03-11T00:04:12.370Z,1.44
2019-03-11T00:06:11.721Z,1.56
2019-03-11T00:06:29.290Z,1.56
2019-03-11T00:08:11.700Z,1.63
2019-03-11T00:10:11.704Z,1.69
2019-03-11T00:12:11.724Z,1.69
2019-03-11T00:14:11.800Z,1.69
2019-03-11T00:16:11.725Z,1.69
2019-03-11T00:18:11.528Z,1.63
2019-03-11T00:20:11.531Z,1.56
2019-03-11T00:21:28.319Z,1.63
2019-03-11T00:22:11.718Z,1.56
2019-03-11T00:24:11.537Z,1.56
2019-03-11T00:26:11.720Z,1.5
2019-03-11T00:28:11.537Z,1.56
2019-03-11T00:30:11.737Z,1.56
2019-03-11T00:32:11.725Z,1.56
2019-03-11T00:34:11.725Z,1.63
2019-03-11T00:36:11.538Z,1.63
2019-03-11T00:36:28.364Z,1.63
2019-03-11T00:38:11.552Z,1.63
2019-03-11T00:40:11.555Z,1.69
2019-03-11T00:42:11.779Z,1.69
2019-03-11T00:44:11.725Z,1.75
2019-03-11T00:46:11.824Z,1.75
2019-03-11T00:48:11.547Z,1.81
2019-03-11T00:50:11.553Z,1.81
2019-03-11T00:51:28.273Z,1.81
2019-03-11T00:52:12.477Z,1.81
2019-03-11T00:54:11.919Z,1.88
2019-03-11T00:56:11.771Z,1.88
2019-03-11T00:58:11.776Z,1.94
2019-03-11T01:00:11.564Z,1.94
2019-03-11T01:02:11.563Z,2
2019-03-11T01:04:11.726Z,2.06
2019-03-11T01:06:11.561Z,2.13
2019-03-11T01:06:28.395Z,2.13
2019-03-11T01:08:11.561Z,2.13
2019-03-11T01:10:11.573Z,2.13
2019-03-11T01:12:12.531Z,2.25
2019-03-11T01:14:11.559Z,2.25
2019-03-11T01:16:11.565Z,2.25
2019-03-11T01:18:11.769Z,2.38
2019-03-11T01:20:11.577Z,2.31
2019-03-11T01:21:28.342Z,2.31
2019-03-11T01:22:11.569Z,2.38
2019-03-11T01:24:11.766Z,2.38
2019-03-11T01:26:11.576Z,2.44
2019-03-11T01:28:11.780Z,2.44
2019-03-11T01:30:11.461Z,2.5
2019-03-11T01:32:11.584Z,2.44
2019-03-11T01:34:11.776Z,2.5
2019-03-11T01:36:11.766Z,2.5
2019-03-11T01:36:28.280Z,2.5
2019-03-11T01:38:12.270Z,2.5
2019-03-11T01:40:11.604Z,2.5
2019-03-11T01:42:11.461Z,2.5
2019-03-11T01:44:11.806Z,2.56
2019-03-11T01:46:11.784Z,2.63
2019-03-11T01:48:11.783Z,2.56
2019-03-11T01:50:11.788Z,2.63
2019-03-11T01:51:28.377Z,2.56
2019-03-11T01:52:11.607Z,2.56
2019-03-11T01:54:11.787Z,2.5
2019-03-11T01:56:12.274Z,2.5
2019-03-11T01:58:11.618Z,2.44
2019-03-11T02:00:11.804Z,2.44
2019-03-11T02:02:11.812Z,2.44
2019-03-11T02:04:11.796Z,2.38
2019-03-11T02:06:11.814Z,2.31
2019-03-11T02:06:28.321Z,2.31
2019-03-11T02:08:11.476Z,2.31
2019-03-11T02:10:11.614Z,2.25
2019-03-11T02:12:11.475Z,2.25
2019-03-11T02:14:11.822Z,2.25
2019-03-11T02:16:11.618Z,2.25
2019-03-11T02:18:11.807Z,2.19
2019-03-11T02:20:11.624Z,2.25
2019-03-11T02:21:28.263Z,2.19
2019-03-11T02:22:11.817Z,2.19
2019-03-11T02:24:11.599Z,2.25
2019-03-11T02:26:11.633Z,2.25
2019-03-11T02:28:11.634Z,2.19
2019-03-11T02:30:12.177Z,2.25
2019-03-11T02:32:11.635Z,2.25
2019-03-11T02:34:13.151Z,2.31
2019-03-11T02:36:11.630Z,2.44
2019-03-11T02:36:29.263Z,2.44
2019-03-11T02:38:11.811Z,2.5
2019-03-11T02:40:11.636Z,2.56
2019-03-11T02:42:11.496Z,2.5
2019-03-11T02:44:11.502Z,2.56
2019-03-11T02:46:11.664Z,2.63
2019-03-11T02:48:11.641Z,2.69
2019-03-11T02:50:11.647Z,2.75
2019-03-11T02:51:28.417Z,2.75
2019-03-11T02:52:11.644Z,2.81
2019-03-11T02:54:11.642Z,2.81
2019-03-11T02:56:12.208Z,2.88
2019-03-11T02:58:11.652Z,2.88
2019-03-11T03:00:11.665Z,2.94
2019-03-11T03:02:11.698Z,3
2019-03-11T03:04:11.635Z,3.06
2019-03-11T03:06:11.657Z,3.06
2019-03-11T03:06:28.226Z,3.06
2019-03-11T03:08:11.524Z,3
2019-03-11T03:10:11.834Z,3
2019-03-11T03:12:11.528Z,2.88
2019-03-11T03:14:11.664Z,2.81
2019-03-11T03:16:11.680Z,2.81
2019-03-11T03:18:12.177Z,2.81
2019-03-11T03:20:11.663Z,2.81
2019-03-11T03:21:28.377Z,2.81
2019-03-11T03:22:11.674Z,2.81
2019-03-11T03:24:11.531Z,2.81
2019-03-11T03:26:11.674Z,2.75
2019-03-11T03:28:11.676Z,2.75
2019-03-11T03:30:11.690Z,2.69
2019-03-11T03:32:11.540Z,2.63
2019-03-11T03:34:11.832Z,2.63
2019-03-11T03:36:11.540Z,2.63
2019-03-11T03:36:28.221Z,2.63
2019-03-11T03:38:11.558Z,2.69
2019-03-11T03:40:11.527Z,2.69
2019-03-11T03:42:13.137Z,2.75
2019-03-11T03:44:11.732Z,2.75
2019-03-11T03:46:18.284Z,2.75
2019-03-11T03:48:11.557Z,2.69
2019-03-11T03:50:11.875Z,2.75
2019-03-11T03:51:28.354Z,2.75
2019-03-11T03:52:11.707Z,2.75
2019-03-11T03:54:11.565Z,2.75
2019-03-11T03:56:11.561Z,2.75
2019-03-11T03:58:11.707Z,2.75
2019-03-11T04:00:11.564Z,2.63
2019-03-11T04:02:11.568Z,2.31
2019-03-11T04:04:11.711Z,1.63
2019-03-11T04:06:11.592Z,1.25
2019-03-11T04:06:28.358Z,1.25
2019-03-11T04:08:11.706Z,0.94
2019-03-11T04:10:11.574Z,0.75
2019-03-11T04:12:11.715Z,0.63
2019-03-11T04:14:11.568Z,0.63
2019-03-11T04:16:11.575Z,0.69
2019-03-11T04:18:11.711Z,0.75
2019-03-11T04:20:11.455Z,0.81
2019-03-11T04:21:28.405Z,0.88
2019-03-11T04:22:11.574Z,0.88
2019-03-11T04:24:11.737Z,0.94
2019-03-11T04:26:11.698Z,0.94
2019-03-11T04:28:11.736Z,1
2019-03-11T04:30:11.925Z,1
2019-03-11T04:32:11.451Z,1.13
2019-03-11T04:34:11.724Z,1.19
2019-03-11T04:36:11.730Z,1.25
2019-03-11T04:36:28.225Z,1.25
2019-03-11T04:38:11.463Z,1.25
2019-03-11T04:40:12.037Z,1.31
2019-03-11T04:42:11.599Z,1.38
2019-03-11T04:44:11.597Z,1.44
2019-03-11T04:46:11.600Z,1.5
2019-03-11T04:48:11.749Z,1.5
2019-03-11T04:50:12.184Z,1.5
2019-03-11T04:51:28.370Z,1.44
2019-03-11T04:52:11.605Z,1.44
2019-03-11T04:54:12.348Z,1.38
2019-03-11T04:56:11.613Z,1.25
2019-03-11T04:58:11.916Z,1.19
2019-03-11T05:00:11.488Z,1.06
2019-03-11T05:02:11.618Z,0.88
2019-03-11T05:04:11.484Z,0.81
2019-03-11T05:06:11.750Z,0.88
2019-03-11T05:06:28.302Z,0.88
2019-03-11T05:08:11.477Z,0.88
2019-03-11T05:10:11.618Z,0.81
2019-03-11T05:12:11.620Z,0.88
2019-03-11T05:14:11.636Z,0.81
2019-03-11T05:16:12.294Z,0.63
2019-03-11T05:18:11.627Z,0.56
2019-03-11T05:20:11.636Z,0.5
2019-03-11T05:21:28.397Z,0.44
2019-03-11T05:22:11.626Z,0.38
2019-03-11T05:24:12.246Z,0.31
2019-03-11T05:26:11.632Z,0.5
2019-03-11T05:28:11.749Z,0.56
2019-03-11T05:30:11.474Z,0.63
2019-03-11T05:32:11.636Z,0.63
2019-03-11T05:34:11.634Z,0.69
2019-03-11T05:36:11.640Z,0.75
2019-03-11T05:36:28.238Z,0.75
2019-03-11T05:38:11.640Z,0.75
2019-03-11T05:40:11.644Z,0.75
2019-03-11T05:42:11.642Z,0.81
2019-03-11T05:44:11.504Z,0.88
2019-03-11T05:46:11.936Z,0.94
2019-03-11T05:48:11.645Z,1
2019-03-11T05:50:11.372Z,1.06
2019-03-11T05:51:31.660Z,1.13
2019-03-11T05:52:21.378Z,1.13
2019-03-11T05:54:11.654Z,1.06
2019-03-11T05:56:11.650Z,1.13
2019-03-11T05:58:11.646Z,1.13
2019-03-11T06:00:11.653Z,1.25
2019-03-11T06:02:11.775Z,1.19
2019-03-11T06:04:11.664Z,1.31
2019-03-11T06:06:11.381Z,1.31
2019-03-11T06:06:28.358Z,1.31
2019-03-11T06:08:11.391Z,1.31
2019-03-11T06:10:11.658Z,1.25
2019-03-11T06:12:11.522Z,1.19
2019-03-11T06:14:11.522Z,1.25
2019-03-11T06:16:11.387Z,1.25
2019-03-11T06:18:11.796Z,1.38
2019-03-11T06:20:11.662Z,1.31
2019-03-11T06:21:28.393Z,1.31
2019-03-11T06:22:11.667Z,1.38
2019-03-11T06:24:11.653Z,1.31
2019-03-11T06:26:11.385Z,1.19
2019-03-11T06:28:11.549Z,0.94
2019-03-11T06:30:11.539Z,0.88
2019-03-11T06:32:12.069Z,0.63
2019-03-11T06:34:11.673Z,0.31
2019-03-11T06:36:11.536Z,0.06
2019-03-11T06:36:28.232Z,-0.06
2019-03-11T06:38:11.552Z,-0.19
2019-03-11T06:40:11.384Z,-0.25
2019-03-11T06:42:11.385Z,-0.25
2019-03-11T06:44:11.670Z,-0.25
2019-03-11T06:46:11.405Z,-0.25
2019-03-11T06:48:11.519Z,-0.25
2019-03-11T06:50:11.546Z,-0.31
2019-03-11T06:51:28.384Z,-0.31
2019-03-11T06:52:11.790Z,-0.31
2019-03-11T06:54:11.405Z,-0.31
2019-03-11T06:56:11.544Z,-0.31
2019-03-11T06:58:11.544Z,-0.25
2019-03-11T07:00:11.547Z,-0.25
2019-03-11T07:02:11.382Z,-0.25
2019-03-11T07:04:11.549Z,-0.25
2019-03-11T07:06:11.550Z,-0.25
2019-03-11T07:06:28.336Z,-0.25
2019-03-11T07:08:11.674Z,-0.25
2019-03-11T07:10:11.554Z,-0.25
2019-03-11T07:12:11.551Z,-0.25
2019-03-11T07:14:11.558Z,-0.13
2019-03-11T07:16:11.289Z,-0.19
2019-03-11T07:18:11.552Z,-0.19
2019-03-11T07:20:11.293Z,-0.13
2019-03-11T07:21:28.491Z,-0.06
2019-03-11T07:22:11.296Z,0
2019-03-11T07:24:11.403Z,-0.06
2019-03-11T07:26:11.429Z,0.19
2019-03-11T07:28:11.816Z,0.19
2019-03-11T07:30:11.569Z,0.25
2019-03-11T07:32:11.541Z,0.38
2019-03-11T07:34:11.434Z,0.44
2019-03-11T07:36:11.566Z,0.44
2019-03-11T07:36:28.298Z,0.38
2019-03-11T07:38:11.295Z,0.5
2019-03-11T07:40:11.577Z,0.5
2019-03-11T07:42:11.433Z,0.44
2019-03-11T07:44:11.430Z,0.44
2019-03-11T07:46:12.193Z,0.44
2019-03-11T07:48:11.574Z,0.38
2019-03-11T07:50:11.434Z,0.31
2019-03-11T07:51:28.363Z,0.31
2019-03-11T07:52:11.590Z,0.31
2019-03-11T07:54:11.569Z,0.25
2019-03-11T07:56:11.574Z,0.31
2019-03-11T07:58:11.437Z,0.31
2019-03-11T08:00:11.300Z,0.25
2019-03-11T08:02:11.296Z,0.19
2019-03-11T08:04:11.288Z,0.25
2019-03-11T08:06:18.322Z,0.19
2019-03-11T08:06:28.344Z,0.19
2019-03-11T08:08:11.602Z,0.06
2019-03-11T08:10:11.596Z,0.13
2019-03-11T08:12:11.429Z,0.06
2019-03-11T08:14:11.455Z,0.06
2019-03-11T08:16:11.290Z,0.19
2019-03-11T08:18:11.331Z,0.25
2019-03-11T08:20:11.460Z,0.31
2019-03-11T08:21:28.394Z,0.38
2019-03-11T08:22:11.455Z,0.44
2019-03-11T08:24:11.611Z,0.5
2019-03-11T08:26:11.461Z,0.56
2019-03-11T08:28:11.460Z,0.63
2019-03-11T08:30:11.462Z,0.75
2019-03-11T08:32:11.285Z,0.81
2019-03-11T08:34:11.291Z,0.88
2019-03-11T08:36:11.469Z,0.88
2019-03-11T08:36:28.250Z,0.88
2019-03-11T08:38:11.473Z,0.94
2019-03-11T08:40:11.465Z,0.88
2019-03-11T08:42:11.311Z,0.88
2019-03-11T08:44:11.471Z,0.94
2019-03-11T08:46:11.452Z,1
2019-03-11T08:48:11.293Z,1
2019-03-11T08:50:11.476Z,1.13
2019-03-11T08:51:28.286Z,1.25
2019-03-11T08:52:11.331Z,1.31
2019-03-11T08:54:11.492Z,1.38
2019-03-11T08:56:11.461Z,1.25
2019-03-11T08:58:11.624Z,1.44
2019-03-11T09:00:11.480Z,1.38
2019-03-11T09:02:11.487Z,1.25
2019-03-11T09:04:11.291Z,1.25
2019-03-11T09:06:11.329Z,1.44
2019-03-11T09:06:28.347Z,1.44
2019-03-11T09:08:11.602Z,1.5
2019-03-11T09:10:11.372Z,1.5
2019-03-11T09:12:11.496Z,1.69
2019-03-11T09:14:11.372Z,1.75
2019-03-11T09:16:11.301Z,1.63
2019-03-11T09:18:11.373Z,1.69
2019-03-11T09:20:11.495Z,1.81
2019-03-11T09:21:28.358Z,1.81
2019-03-11T09:22:11.368Z,1.75
2019-03-11T09:24:18.940Z,1.75
2019-03-11T09:26:11.345Z,1.88
2019-03-11T09:28:11.282Z,2
2019-03-11T09:30:11.472Z,2
2019-03-11T09:32:11.328Z,1.94
2019-03-11T09:34:11.474Z,2.06
2019-03-11T09:36:11.316Z,2.13
2019-03-11T09:36:28.354Z,2.13
2019-03-11T09:38:11.374Z,2.25
2019-03-11T09:40:11.505Z,2.31
2019-03-11T09:42:11.506Z,2.31
2019-03-11T09:44:11.507Z,2.38
2019-03-11T09:46:11.517Z,2.5
2019-03-11T09:48:11.300Z,2.5
2019-03-11T09:50:11.513Z,2.56
2019-03-11T09:51:28.346Z,2.69
2019-03-11T09:52:11.309Z,2.63
2019-03-11T09:54:11.514Z,2.56
2019-03-11T09:56:11.531Z,2.5
2019-03-11T09:58:11.349Z,2.69
2019-03-11T10:00:11.368Z,2.63
2019-03-11T10:02:12.338Z,2.56
2019-03-11T10:04:11.522Z,2.63
2019-03-11T10:06:11.520Z,2.69
2019-03-11T10:06:29.228Z,2.75
2019-03-11T10:08:11.508Z,2.69
2019-03-11T10:10:11.374Z,2.63
2019-03-11T10:12:11.377Z,2.63
2019-03-11T10:14:11.369Z,2.69
2019-03-11T10:16:11.369Z,2.81
2019-03-11T10:18:11.534Z,2.88
2019-03-11T10:20:11.339Z,2.94
2019-03-11T10:21:28.367Z,3.06
2019-03-11T10:22:11.508Z,3.06
2019-03-11T10:24:11.393Z,3.13
2019-03-11T10:26:11.530Z,3
2019-03-11T10:28:11.411Z,3
2019-03-11T10:30:11.520Z,3.06
2019-03-11T10:32:11.324Z,3.31
2019-03-11T10:34:11.532Z,3.44
2019-03-11T10:36:11.421Z,3.5
2019-03-11T10:36:28.283Z,3.5
2019-03-11T10:38:11.302Z,3.44
2019-03-11T10:40:11.426Z,3.38
2019-03-11T10:42:11.341Z,3.38
2019-03-11T10:44:11.306Z,3.38
2019-03-11T10:46:11.357Z,3.5
2019-03-11T10:48:11.416Z,3.63
2019-03-11T10:50:11.385Z,3.75
2019-03-11T10:51:28.437Z,3.81
2019-03-11T10:52:11.408Z,3.94
2019-03-11T10:54:11.386Z,4
2019-03-11T10:56:11.388Z,4
2019-03-11T10:58:11.541Z,3.88
2019-03-11T11:00:11.291Z,3.88
2019-03-11T11:02:11.398Z,3.88
2019-03-11T11:04:12.331Z,3.75
2019-03-11T11:06:11.306Z,3.56
2019-03-11T11:06:28.233Z,3.44
2019-03-11T11:08:11.424Z,3.38
2019-03-11T11:10:12.293Z,3.31
2019-03-11T11:12:11.390Z,3.19
2019-03-11T11:14:11.387Z,3.06
2019-03-11T11:16:11.447Z,2.44
2019-03-11T11:18:11.444Z,2.25
2019-03-11T11:20:11.427Z,2.56
2019-03-11T11:21:28.304Z,2.69
2019-03-11T11:22:11.325Z,2.75
2019-03-11T11:24:11.445Z,2.88
2019-03-11T11:26:11.449Z,3.13
2019-03-11T11:28:11.381Z,3.19
2019-03-11T11:30:11.353Z,3.25
2019-03-11T11:32:11.368Z,3.25
2019-03-11T11:34:11.441Z,3.38
2019-03-11T11:36:11.313Z,3.5
2019-03-11T11:36:28.309Z,3.5
2019-03-11T11:38:11.375Z,3.56
2019-03-11T11:40:11.867Z,3.75
2019-03-11T11:42:11.416Z,3.88
2019-03-11T11:44:11.284Z,4
2019-03-11T11:46:11.385Z,4.25
2019-03-11T11:48:11.391Z,4.19
2019-03-11T11:50:11.461Z,4.13
2019-03-11T11:51:28.272Z,4.19
2019-03-11T11:52:11.373Z,4.25
2019-03-11T11:54:11.294Z,4.44
2019-03-11T11:56:11.428Z,4.56
2019-03-11T11:58:11.438Z,4.75
2019-03-11T12:00:11.313Z,4.69
2019-03-11T12:02:11.380Z,4.63
2019-03-11T12:04:13.498Z,4.5
2019-03-11T12:06:11.412Z,4.56
2019-03-11T12:06:28.307Z,4.56
2019-03-11T12:08:11.438Z,4.75
2019-03-11T12:10:11.377Z,4.81
2019-03-11T12:12:11.351Z,4.94
2019-03-11T12:14:11.351Z,4.88
2019-03-11T12:16:11.424Z,4.94
2019-03-11T12:18:11.287Z,5
2019-03-11T12:20:11.436Z,5.13
2019-03-11T12:21:28.347Z,5.13
2019-03-11T12:22:11.310Z,5.19
2019-03-11T12:24:11.284Z,5.31
2019-03-11T12:26:11.368Z,5.38
2019-03-11T12:28:11.368Z,5.5
2019-03-11T12:30:11.426Z,5.31
2019-03-11T12:32:11.288Z,4.81
2019-03-11T12:34:11.389Z,4.38
2019-03-11T12:36:11.436Z,4.56
2019-03-11T12:36:28.224Z,4.56
2019-03-11T12:38:11.432Z,4.81
2019-03-11T12:40:11.376Z,4.94
2019-03-11T12:42:11.450Z,5.06
2019-03-11T12:44:11.425Z,5.19
2019-03-11T12:46:11.389Z,5.31
2019-03-11T12:48:11.418Z,5.31
2019-03-11T12:50:11.442Z,5.31
2019-03-11T12:51:28.376Z,5.31
2019-03-11T12:52:11.376Z,5.31
2019-03-11T12:54:11.306Z,5.38
2019-03-11T12:56:11.369Z,5.56
2019-03-11T12:58:11.355Z,5.69
2019-03-11T13:00:11.411Z,5.69
2019-03-11T13:02:11.310Z,5.63
2019-03-11T13:04:11.370Z,5.63
2019-03-11T13:06:11.388Z,5.81
2019-03-11T13:06:28.349Z,5.81
2019-03-11T13:08:11.423Z,5.75
2019-03-11T13:10:11.447Z,5.69
2019-03-11T13:12:11.295Z,5.63
2019-03-11T13:14:11.434Z,5.69
2019-03-11T13:16:11.367Z,5.56
2019-03-11T13:18:11.393Z,5.56
2019-03-11T13:20:11.464Z,5.5
2019-03-11T13:21:28.339Z,5.5
2019-03-11T13:22:11.373Z,5.44
2019-03-11T13:24:11.424Z,5.19
2019-03-11T13:26:11.383Z,5.19
2019-03-11T13:28:11.374Z,5.19
2019-03-11T13:30:11.372Z,5.13
2019-03-11T13:32:11.531Z,5.19
2019-03-11T13:34:11.427Z,5.44
2019-03-11T13:36:11.433Z,5.56
2019-03-11T13:36:28.349Z,5.56
2019-03-11T13:38:11.343Z,5.81
2019-03-11T13:40:11.308Z,5.81
2019-03-11T13:42:12.123Z,5.63
2019-03-11T13:44:11.371Z,5.63
2019-03-11T13:46:11.385Z,5.81
2019-03-11T13:48:11.317Z,6.06
2019-03-11T13:50:11.390Z,6.31
2019-03-11T13:51:28.313Z,6.25
2019-03-11T13:52:11.425Z,6.19
2019-03-11T13:54:11.323Z,6.31
2019-03-11T13:56:11.327Z,6.31
2019-03-11T13:58:11.383Z,6.06
2019-03-11T14:00:11.369Z,5.94
2019-03-11T14:02:11.513Z,5.38
2019-03-11T14:04:11.456Z,4.69
2019-03-11T14:06:11.428Z,3.94
2019-03-11T14:06:28.229Z,3.94
2019-03-11T14:08:11.407Z,3.81
2019-03-11T14:10:11.446Z,3.94
2019-03-11T14:12:11.402Z,4
2019-03-11T14:14:11.461Z,4
2019-03-11T14:16:11.484Z,4.19
2019-03-11T14:18:11.447Z,4.38
2019-03-11T14:20:11.385Z,4.44
2019-03-11T14:21:28.340Z,4.56
2019-03-11T14:22:11.290Z,4.56
2019-03-11T14:24:11.300Z,4.69
2019-03-11T14:26:12.393Z,4.94
2019-03-11T14:28:13.777Z,5
2019-03-11T14:30:11.425Z,5.06
2019-03-11T14:32:11.437Z,5.19
2019-03-11T14:34:11.382Z,5.31
2019-03-11T14:36:11.447Z,5.38
2019-03-11T14:36:29.158Z,5.38
2019-03-11T14:38:11.380Z,5.38
2019-03-11T14:40:11.301Z,5.38
2019-03-11T14:42:11.421Z,5.5
2019-03-11T14:44:11.303Z,5.5
2019-03-11T14:46:11.341Z,5.69
2019-03-11T14:48:11.305Z,5.81
2019-03-11T14:50:11.299Z,5.94
2019-03-11T14:51:28.439Z,6
2019-03-11T14:52:11.438Z,5.94
2019-03-11T14:54:11.330Z,5.81
2019-03-11T14:56:11.331Z,5.88
2019-03-11T14:58:11.405Z,5.94
2019-03-11T15:00:11.370Z,5.94
2019-03-11T15:02:11.413Z,5.81
2019-03-11T15:04:11.309Z,5.88
2019-03-11T15:06:11.301Z,5.94
2019-03-11T15:06:28.300Z,5.94
2019-03-11T15:08:12.683Z,5.94
2019-03-11T15:10:11.371Z,5.88
2019-03-11T15:12:11.365Z,5.88
2019-03-11T15:14:11.426Z,5.88
2019-03-11T15:16:11.377Z,6
2019-03-11T15:18:11.381Z,6
2019-03-11T15:20:11.372Z,6
2019-03-11T15:21:28.377Z,5.94
2019-03-11T15:22:11.434Z,5.94
2019-03-11T15:24:11.375Z,5.94
2019-03-11T15:26:11.432Z,5.94
2019-03-11T15:28:11.436Z,5.88
2019-03-11T15:30:12.439Z,5.88
2019-03-11T15:32:11.411Z,5.81
2019-03-11T15:34:11.381Z,5.88
2019-03-11T15:36:11.445Z,5.81
2019-03-11T15:36:33.271Z,5.81
2019-03-11T15:38:11.382Z,5.81
2019-03-11T15:40:11.419Z,5.88
2019-03-11T15:42:11.417Z,5.88
2019-03-11T15:44:11.301Z,5.81
2019-03-11T15:46:11.416Z,5.81
2019-03-11T15:48:11.421Z,5.81
2019-03-11T15:50:11.414Z,5.81
2019-03-11T15:51:36.146Z,5.75
2019-03-11T15:52:11.411Z,5.69
2019-03-11T15:54:11.285Z,5.69
2019-03-11T15:56:11.297Z,5.69
2019-03-11T15:58:11.393Z,5.63
2019-03-11T16:00:11.369Z,5.63
2019-03-11T16:02:11.356Z,5.88
2019-03-11T16:04:11.371Z,6.13
2019-03-11T16:06:11.349Z,6.25
2019-03-11T16:06:28.349Z,6.25
2019-03-11T16:08:11.388Z,6
2019-03-11T16:10:16.557Z,5.75
2019-03-11T16:12:11.384Z,5.63
2019-03-11T16:14:11.377Z,5.69
2019-03-11T16:16:11.291Z,5.75
2019-03-11T16:18:11.307Z,5.75
2019-03-11T16:20:11.294Z,5.75
2019-03-11T16:21:28.330Z,5.63
2019-03-11T16:22:22.428Z,5.63
2019-03-11T16:24:11.345Z,5.5
2019-03-11T16:26:11.320Z,5.44
2019-03-11T16:28:11.425Z,5.44
2019-03-11T16:30:11.436Z,5.44
2019-03-11T16:32:12.077Z,5.5
2019-03-11T16:34:11.431Z,5.38
2019-03-11T16:36:11.425Z,5.38
2019-03-11T16:36:28.358Z,5.38
2019-03-11T16:38:11.413Z,5.31
2019-03-11T16:40:11.336Z,5.06
2019-03-11T16:42:11.298Z,4.56
2019-03-11T16:44:11.382Z,4.44
2019-03-11T16:46:11.290Z,4.44
2019-03-11T16:48:11.462Z,4.56
2019-03-11T16:50:11.308Z,4.69
2019-03-11T16:51:28.335Z,4.69
2019-03-11T16:52:11.372Z,4.69
2019-03-11T16:54:11.618Z,4.81
2019-03-11T16:56:11.330Z,4.75
2019-03-11T16:58:11.382Z,4.63
2019-03-11T17:00:11.499Z,4.75
2019-03-11T17:02:11.442Z,4.75
2019-03-11T17:04:11.492Z,4.81
2019-03-11T17:06:11.346Z,4.88
2019-03-11T17:06:28.446Z,4.88
2019-03-11T17:08:11.366Z,4.81
2019-03-11T17:10:11.412Z,4.88
2019-03-11T17:12:11.329Z,4.94
2019-03-11T17:14:11.393Z,4.94
2019-03-11T17:16:11.457Z,4.88
2019-03-11T17:18:11.327Z,4.88
2019-03-11T17:20:11.451Z,4.94
2019-03-11T17:21:28.362Z,4.94
2019-03-11T17:22:11.403Z,4.94
2019-03-11T17:24:11.312Z,4.88
2019-03-11T17:26:11.445Z,4.81
2019-03-11T17:28:11.480Z,4.69
2019-03-11T17:30:11.311Z,4.63
2019-03-11T17:32:11.397Z,4.63
2019-03-11T17:34:11.463Z,4.63
2019-03-11T17:36:12.478Z,4.56
2019-03-11T17:36:28.305Z,4.56
2019-03-11T17:38:11.523Z,4.56
2019-03-11T17:40:11.455Z,4.5
2019-03-11T17:42:11.380Z,4.38
2019-03-11T17:44:11.388Z,4.38
2019-03-11T17:46:11.395Z,4.38
2019-03-11T17:48:11.437Z,4.31
2019-03-11T17:50:11.391Z,4.38
2019-03-11T17:51:28.411Z,4.31
2019-03-11T17:52:11.442Z,4.44
2019-03-11T17:54:11.433Z,4.44
2019-03-11T17:56:11.441Z,4.38
2019-03-11T17:58:11.402Z,4.31
2019-03-11T18:00:11.437Z,4.38
2019-03-11T18:02:11.450Z,4.31
2019-03-11T18:04:11.313Z,4.31
2019-03-11T18:06:12.054Z,4.19
2019-03-11T18:06:28.360Z,4.13
2019-03-11T18:08:11.419Z,4.25
2019-03-11T18:10:11.433Z,4.31
2019-03-11T18:12:11.740Z,4.31
2019-03-11T18:14:11.447Z,4.38
2019-03-11T18:16:11.379Z,4.44
2019-03-11T18:18:11.438Z,4.5
2019-03-11T18:20:11.318Z,4.56
2019-03-11T18:21:28.520Z,4.63
2019-03-11T18:22:11.408Z,4.63
2019-03-11T18:24:11.437Z,4.63
2019-03-11T18:26:12.513Z,4.5
2019-03-11T18:28:11.439Z,4.38
2019-03-11T18:30:11.322Z,4.38
2019-03-11T18:32:11.297Z,4.31
2019-03-11T18:34:11.390Z,4.31
2019-03-11T18:36:11.438Z,4.19
2019-03-11T18:36:29.103Z,4.19
2019-03-11T18:38:11.479Z,4.19
2019-03-11T18:40:11.316Z,4.13
2019-03-11T18:42:12.334Z,4.06
2019-03-11T18:44:11.437Z,4
2019-03-11T18:46:11.310Z,4
2019-03-11T18:48:11.483Z,4
2019-03-11T18:50:11.442Z,4
2019-03-11T18:51:28.396Z,4
2019-03-11T18:52:11.390Z,3.94
2019-03-11T18:54:12.623Z,3.81
2019-03-11T18:56:11.374Z,3.81
2019-03-11T18:58:11.307Z,3.81
2019-03-11T19:00:11.448Z,3.81
2019-03-11T19:02:11.423Z,3.75
2019-03-11T19:04:11.398Z,3.75
2019-03-11T19:06:11.495Z,3.75
2019-03-11T19:06:28.330Z,3.75
2019-03-11T19:08:11.436Z,3.69
2019-03-11T19:10:11.310Z,3.63
2019-03-11T19:12:11.424Z,3.63
2019-03-11T19:14:11.334Z,3.56
2019-03-11T19:16:11.457Z,3.56
2019-03-11T19:18:11.347Z,3.5
2019-03-11T19:20:11.409Z,3.5
2019-03-11T19:21:28.477Z,3.44
2019-03-11T19:22:11.348Z,3.44
2019-03-11T19:24:11.354Z,3.44
2019-03-11T19:26:11.421Z,3.38
2019-03-11T19:28:11.390Z,3.31
2019-03-11T19:30:11.448Z,3.25
2019-03-11T19:32:11.314Z,3.25
2019-03-11T19:34:11.457Z,3.25
2019-03-11T19:36:11.375Z,3.19
2019-03-11T19:36:28.272Z,3.19
2019-03-11T19:38:11.418Z,3.13
2019-03-11T19:40:11.451Z,3.06
2019-03-11T19:42:11.405Z,3.06
2019-03-11T19:44:11.443Z,3.06
2019-03-11T19:46:11.414Z,3.06
2019-03-11T19:48:11.461Z,3.06
2019-03-11T19:50:11.405Z,3
2019-03-11T19:51:28.485Z,3
2019-03-11T19:52:11.391Z,3
2019-03-11T19:54:11.305Z,2.94
2019-03-11T19:56:11.442Z,2.94
2019-03-11T19:58:11.426Z,2.88
2019-03-11T20:00:11.361Z,2.94
2019-03-11T20:02:11.427Z,2.88
2019-03-11T20:04:11.372Z,2.81
2019-03-11T20:06:11.454Z,2.81
2019-03-11T20:06:28.339Z,2.75
2019-03-11T20:08:11.356Z,2.69
2019-03-11T20:10:16.362Z,2.63
2019-03-11T20:12:11.353Z,2.69
2019-03-11T20:14:11.334Z,2.75
2019-03-11T20:16:11.485Z,2.81
2019-03-11T20:18:11.427Z,2.88
2019-03-11T20:20:11.318Z,2.81
2019-03-11T20:21:28.359Z,2.81
2019-03-11T20:22:11.377Z,2.81
2019-03-11T20:24:11.452Z,2.81
2019-03-11T20:26:13.095Z,2.81
2019-03-11T20:28:11.298Z,2.88
2019-03-11T20:30:11.523Z,2.75
2019-03-11T20:32:11.395Z,2.75
2019-03-11T20:34:11.456Z,2.75
2019-03-11T20:36:20.498Z,2.88
2019-03-11T20:36:28.294Z,2.88
2019-03-11T20:38:11.410Z,2.94
2019-03-11T20:40:11.441Z,2.88
2019-03-11T20:42:11.497Z,2.88
2019-03-11T20:44:11.430Z,2.88
2019-03-11T20:46:12.637Z,2.94
2019-03-11T20:48:11.326Z,2.88
2019-03-11T20:50:11.401Z,3
2019-03-11T20:51:28.289Z,3
2019-03-11T20:52:11.363Z,3
2019-03-11T20:54:11.341Z,3.06
2019-03-11T20:56:11.315Z,3
2019-03-11T20:58:11.430Z,3.13
2019-03-11T21:00:11.479Z,3.13
2019-03-11T21:02:11.475Z,3.13
2019-03-11T21:04:11.349Z,3.13
2019-03-11T21:06:11.462Z,3.13
2019-03-11T21:06:28.369Z,3.06
2019-03-11T21:08:11.415Z,3.06
2019-03-11T21:10:11.330Z,3
2019-03-11T21:12:11.337Z,3
2019-03-11T21:14:11.446Z,2.94
2019-03-11T21:16:11.318Z,2.81
2019-03-11T21:18:11.488Z,2.81
2019-03-11T21:20:13.706Z,2.81
2019-03-11T21:21:28.256Z,2.81
2019-03-11T21:22:12.479Z,2.81
2019-03-11T21:24:13.802Z,2.75
2019-03-11T21:26:11.538Z,2.69
2019-03-11T21:28:11.419Z,2.75
2019-03-11T21:30:11.548Z,2.69
2019-03-11T21:32:11.293Z,2.75
2019-03-11T21:34:11.375Z,2.69
2019-03-11T21:36:11.526Z,2.69
2019-03-11T21:36:28.313Z,2.69
2019-03-11T21:38:11.376Z,2.69
2019-03-11T21:40:11.425Z,2.69
2019-03-11T21:42:11.479Z,2.81
2019-03-11T21:44:11.394Z,2.81
2019-03-11T21:46:11.553Z,2.88
2019-03-11T21:48:11.325Z,2.94
2019-03-11T21:50:11.436Z,2.94
2019-03-11T21:51:28.265Z,2.94
2019-03-11T21:52:11.424Z,2.94
2019-03-11T21:54:11.403Z,2.94
2019-03-11T21:56:11.430Z,2.88
2019-03-11T21:58:13.361Z,2.88
2019-03-11T22:00:11.404Z,2.81
2019-03-11T22:02:11.511Z,2.81
2019-03-11T22:04:11.411Z,2.81
2019-03-11T22:06:11.534Z,2.88
2019-03-11T22:06:30.713Z,2.88
2019-03-11T22:08:11.451Z,2.81
2019-03-11T22:10:11.380Z,2.81
2019-03-11T22:12:11.439Z,2.81
2019-03-11T22:14:11.484Z,2.81
2019-03-11T22:16:11.439Z,2.81
2019-03-11T22:18:11.364Z,2.88
2019-03-11T22:20:11.412Z,2.81
2019-03-11T22:21:28.442Z,2.81
2019-03-11T22:22:11.444Z,2.81
2019-03-11T22:24:11.432Z,2.75
2019-03-11T22:26:11.457Z,2.81
2019-03-11T22:28:11.396Z,2.75
2019-03-11T22:30:11.575Z,2.69
2019-03-11T22:32:11.421Z,2.69
2019-03-11T22:34:11.377Z,2.69
2019-03-11T22:36:11.333Z,2.75
2019-03-11T22:36:28.319Z,2.69
2019-03-11T22:38:11.760Z,2.69
2019-03-11T22:40:11.381Z,2.75
2019-03-11T22:42:11.434Z,2.69
2019-03-11T22:44:11.368Z,2.69
2019-03-11T22:46:11.369Z,2.69
2019-03-11T22:48:11.346Z,2.69
2019-03-11T22:50:11.316Z,2.63
2019-03-11T22:51:28.402Z,2.56
2019-03-11T22:52:11.374Z,2.56
2019-03-11T22:54:11.424Z,2.56
2019-03-11T22:56:11.381Z,2.63
2019-03-11T22:58:11.425Z,2.56
2019-03-11T23:00:11.388Z,2.56
2019-03-11T23:02:11.634Z,2.56
2019-03-11T23:04:11.446Z,2.56
2019-03-11T23:06:11.426Z,2.63
2019-03-11T23:06:28.265Z,2.63
2019-03-11T23:08:11.441Z,2.63
2019-03-11T23:10:12.437Z,2.63
2019-03-11T23:12:11.376Z,2.5
2019-03-11T23:14:11.290Z,2.56
2019-03-11T23:16:11.390Z,2.63
2019-03-11T23:18:11.591Z,2.56
2019-03-11T23:20:11.428Z,2.5
2019-03-11T23:21:28.399Z,2.44
2019-03-11T23:22:11.426Z,2.5
2019-03-11T23:24:11.347Z,2.5
2019-03-11T23:26:11.429Z,2.38
2019-03-11T23:28:11.427Z,2.44
2019-03-11T23:30:11.371Z,2.38
2019-03-11T23:32:11.414Z,2.38
2019-03-11T23:34:11.369Z,2.31
2019-03-11T23:36:11.380Z,2.44
2019-03-11T23:36:28.308Z,2.44